sensor_id;sensor_type;location;lat;lon;timestamp;P1;durP1;ratioP1;P2;durP2;ratioP2
9042;SDS011;4556;49.150;8.808;2022-07-05T00:00:27;3.53;;;1.20;;
9042;SDS011;4556;49.150;8.808;2022-07-05T00:02:54;4.03;;;1.63;;
9042;SDS011;4556;49.150;8.808;2022-07-05T00:05:21;2.77;;;1.10;;
9042;SDS011;4556;49.150;8.808;2022-07-05T00:07:48;1.73;;;1.33;;
9042;SDS011;4556;49.150;8.808;2022-07-05T00:10:15;3.50;;;1.43;;
9042;SDS011;4556;49.150;8.808;2022-07-05T00:12:42;3.23;;;1.47;;
9042;SDS011;4556;49.150;8.808;2022-07-05T00:15:11;1.67;;;1.50;;
9042;SDS011;4556;49.150;8.808;2022-07-05T00:17:38;3.07;;;1.40;;
9042;SDS011;4556;49.150;8.808;2022-07-05T00:20:05;1.73;;;1.23;;
9042;SDS011;4556;49.150;8.808;2022-07-05T00:22:33;2.07;;;1.37;;
9042;SDS011;4556;49.150;8.808;2022-07-05T00:25:00;2.47;;;1.70;;
9042;SDS011;4556;49.150;8.808;2022-07-05T00:27:27;2.80;;;1.33;;
9042;SDS011;4556;49.150;8.808;2022-07-05T00:29:54;1.90;;;1.20;;
9042;SDS011;4556;49.150;8.808;2022-07-05T00:32:23;1.70;;;1.20;;
9042;SDS011;4556;49.150;8.808;2022-07-05T00:34:50;1.30;;;1.20;;
9042;SDS011;4556;49.150;8.808;2022-07-05T00:37:18;1.30;;;1.03;;
9042;SDS011;4556;49.150;8.808;2022-07-05T00:39:45;1.30;;;1.20;;
9042;SDS011;4556;49.150;8.808;2022-07-05T00:42:12;1.50;;;1.10;;
9042;SDS011;4556;49.150;8.808;2022-07-05T00:44:39;3.57;;;1.40;;
9042;SDS011;4556;49.150;8.808;2022-07-05T00:47:08;1.77;;;1.50;;
9042;SDS011;4556;49.150;8.808;2022-07-05T00:49:37;2.33;;;1.20;;
9042;SDS011;4556;49.150;8.808;2022-07-05T00:52:06;1.77;;;1.33;;
9042;SDS011;4556;49.150;8.808;2022-07-05T00:54:34;1.87;;;1.30;;
9042;SDS011;4556;49.150;8.808;2022-07-05T00:57:02;1.70;;;1.13;;
9042;SDS011;4556;49.150;8.808;2022-07-05T00:59:30;1.50;;;1.40;;
9042;SDS011;4556;49.150;8.808;2022-07-05T01:01:58;1.77;;;1.40;;
9042;SDS011;4556;49.150;8.808;2022-07-05T01:04:25;3.20;;;1.50;;
9042;SDS011;4556;49.150;8.808;2022-07-05T01:06:53;2.03;;;1.30;;
9042;SDS011;4556;49.150;8.808;2022-07-05T01:09:22;1.40;;;1.30;;
9042;SDS011;4556;49.150;8.808;2022-07-05T01:11:50;1.30;;;1.20;;
9042;SDS011;4556;49.150;8.808;2022-07-05T01:14:17;1.40;;;1.30;;
9042;SDS011;4556;49.150;8.808;2022-07-05T01:16:46;3.43;;;1.23;;
9042;SDS011;4556;49.150;8.808;2022-07-05T01:19:14;1.77;;;1.40;;
9042;SDS011;4556;49.150;8.808;2022-07-05T01:21:43;2.03;;;1.30;;
9042;SDS011;4556;49.150;8.808;2022-07-05T01:24:14;1.60;;;1.50;;
9042;SDS011;4556;49.150;8.808;2022-07-05T01:26:43;2.47;;;1.20;;
9042;SDS011;4556;49.150;8.808;2022-07-05T01:29:11;3.43;;;1.33;;
9042;SDS011;4556;49.150;8.808;2022-07-05T01:31:38;1.73;;;1.27;;
9042;SDS011;4556;49.150;8.808;2022-07-05T01:34:06;2.73;;;1.30;;
9042;SDS011;4556;49.150;8.808;2022-07-05T01:36:34;1.77;;;1.27;;
9042;SDS011;4556;49.150;8.808;2022-07-05T01:39:04;2.00;;;1.30;;
9042;SDS011;4556;49.150;8.808;2022-07-05T01:41:34;1.83;;;1.27;;
9042;SDS011;4556;49.150;8.808;2022-07-05T01:44:01;2.13;;;1.20;;
9042;SDS011;4556;49.150;8.808;2022-07-05T01:46:30;3.50;;;1.50;;
9042;SDS011;4556;49.150;8.808;2022-07-05T01:49:03;2.07;;;1.27;;
9042;SDS011;4556;49.150;8.808;2022-07-05T01:51:33;1.43;;;1.33;;
9042;SDS011;4556;49.150;8.808;2022-07-05T01:54:02;4.10;;;1.50;;
9042;SDS011;4556;49.150;8.808;2022-07-05T01:56:29;1.63;;;1.40;;
9042;SDS011;4556;49.150;8.808;2022-07-05T01:58:58;2.70;;;1.20;;
9042;SDS011;4556;49.150;8.808;2022-07-05T02:01:32;1.57;;;1.30;;
9042;SDS011;4556;49.150;8.808;2022-07-05T02:04:01;1.53;;;1.43;;
9042;SDS011;4556;49.150;8.808;2022-07-05T02:06:29;2.03;;;1.53;;
9042;SDS011;4556;49.150;8.808;2022-07-05T02:08:57;3.03;;;1.50;;
9042;SDS011;4556;49.150;8.808;2022-07-05T02:11:24;4.30;;;1.07;;
9042;SDS011;4556;49.150;8.808;2022-07-05T02:13:51;1.33;;;1.23;;
9042;SDS011;4556;49.150;8.808;2022-07-05T02:16:23;1.43;;;1.20;;
9042;SDS011;4556;49.150;8.808;2022-07-05T02:18:50;2.33;;;1.20;;
9042;SDS011;4556;49.150;8.808;2022-07-05T02:21:17;1.50;;;1.40;;
9042;SDS011;4556;49.150;8.808;2022-07-05T02:23:44;4.23;;;1.50;;
9042;SDS011;4556;49.150;8.808;2022-07-05T02:26:11;4.57;;;1.60;;
9042;SDS011;4556;49.150;8.808;2022-07-05T02:31:08;3.47;;;1.87;;
9042;SDS011;4556;49.150;8.808;2022-07-05T02:33:37;2.23;;;1.47;;
9042;SDS011;4556;49.150;8.808;2022-07-05T02:36:08;1.57;;;1.30;;
9042;SDS011;4556;49.150;8.808;2022-07-05T02:38:37;4.53;;;1.50;;
9042;SDS011;4556;49.150;8.808;2022-07-05T02:41:04;4.23;;;1.50;;
9042;SDS011;4556;49.150;8.808;2022-07-05T02:43:32;3.20;;;1.40;;
9042;SDS011;4556;49.150;8.808;2022-07-05T02:45:59;3.00;;;1.33;;
9042;SDS011;4556;49.150;8.808;2022-07-05T02:48:26;1.40;;;1.20;;
9042;SDS011;4556;49.150;8.808;2022-07-05T02:50:55;4.03;;;1.40;;
9042;SDS011;4556;49.150;8.808;2022-07-05T02:53:23;5.27;;;1.27;;
9042;SDS011;4556;49.150;8.808;2022-07-05T02:55:50;3.70;;;1.50;;
9042;SDS011;4556;49.150;8.808;2022-07-05T02:58:18;5.07;;;1.40;;
9042;SDS011;4556;49.150;8.808;2022-07-05T03:00:45;4.23;;;1.60;;
9042;SDS011;4556;49.150;8.808;2022-07-05T03:03:13;5.10;;;1.33;;
9042;SDS011;4556;49.150;8.808;2022-07-05T03:05:40;3.53;;;1.37;;
9042;SDS011;4556;49.150;8.808;2022-07-05T03:08:09;2.47;;;1.30;;
9042;SDS011;4556;49.150;8.808;2022-07-05T03:10:36;3.87;;;1.53;;
9042;SDS011;4556;49.150;8.808;2022-07-05T03:13:04;4.37;;;1.50;;
9042;SDS011;4556;49.150;8.808;2022-07-05T03:15:31;5.00;;;1.60;;
9042;SDS011;4556;49.150;8.808;2022-07-05T03:17:58;3.97;;;1.60;;
9042;SDS011;4556;49.150;8.808;2022-07-05T03:20:25;3.30;;;1.30;;
9042;SDS011;4556;49.150;8.808;2022-07-05T03:22:53;3.03;;;1.53;;
9042;SDS011;4556;49.150;8.808;2022-07-05T03:25:22;6.10;;;1.57;;
9042;SDS011;4556;49.150;8.808;2022-07-05T03:27:49;4.03;;;1.50;;
9042;SDS011;4556;49.150;8.808;2022-07-05T03:30:16;3.57;;;1.50;;
9042;SDS011;4556;49.150;8.808;2022-07-05T03:32:43;5.40;;;1.57;;
9042;SDS011;4556;49.150;8.808;2022-07-05T03:35:10;4.03;;;1.60;;
9042;SDS011;4556;49.150;8.808;2022-07-05T03:37:37;6.87;;;1.80;;
9042;SDS011;4556;49.150;8.808;2022-07-05T03:40:04;2.10;;;1.37;;
9042;SDS011;4556;49.150;8.808;2022-07-05T03:42:34;2.50;;;1.60;;
9042;SDS011;4556;49.150;8.808;2022-07-05T03:45:01;4.73;;;1.60;;
9042;SDS011;4556;49.150;8.808;2022-07-05T03:47:28;5.27;;;1.57;;
9042;SDS011;4556;49.150;8.808;2022-07-05T03:49:55;3.30;;;1.50;;
9042;SDS011;4556;49.150;8.808;2022-07-05T03:52:22;3.87;;;1.43;;
9042;SDS011;4556;49.150;8.808;2022-07-05T03:54:49;6.80;;;1.60;;
9042;SDS011;4556;49.150;8.808;2022-07-05T03:57:17;2.73;;;1.50;;
9042;SDS011;4556;49.150;8.808;2022-07-05T03:59:45;4.60;;;1.77;;
9042;SDS011;4556;49.150;8.808;2022-07-05T04:02:12;3.57;;;2.00;;
9042;SDS011;4556;49.150;8.808;2022-07-05T04:04:39;5.13;;;1.80;;
9042;SDS011;4556;49.150;8.808;2022-07-05T04:07:06;4.17;;;1.63;;
9042;SDS011;4556;49.150;8.808;2022-07-05T04:09:33;5.53;;;2.10;;
9042;SDS011;4556;49.150;8.808;2022-07-05T04:12:00;4.50;;;1.83;;
9042;SDS011;4556;49.150;8.808;2022-07-05T04:14:28;3.33;;;1.70;;
9042;SDS011;4556;49.150;8.808;2022-07-05T04:16:57;1.90;;;1.50;;
9042;SDS011;4556;49.150;8.808;2022-07-05T04:19:24;5.73;;;1.70;;
9042;SDS011;4556;49.150;8.808;2022-07-05T04:21:51;5.87;;;1.87;;
9042;SDS011;4556;49.150;8.808;2022-07-05T04:24:18;5.73;;;1.80;;
9042;SDS011;4556;49.150;8.808;2022-07-05T04:26:45;2.83;;;1.80;;
9042;SDS011;4556;49.150;8.808;2022-07-05T04:29:12;10.33;;;2.27;;
9042;SDS011;4556;49.150;8.808;2022-07-05T04:31:39;3.03;;;1.67;;
9042;SDS011;4556;49.150;8.808;2022-07-05T04:34:08;3.70;;;1.90;;
9042;SDS011;4556;49.150;8.808;2022-07-05T04:36:35;5.17;;;1.97;;
9042;SDS011;4556;49.150;8.808;2022-07-05T04:39:05;7.27;;;2.20;;
9042;SDS011;4556;49.150;8.808;2022-07-05T04:41:33;5.40;;;2.30;;
9042;SDS011;4556;49.150;8.808;2022-07-05T04:44:00;3.70;;;2.30;;
9042;SDS011;4556;49.150;8.808;2022-07-05T04:46:27;5.37;;;1.80;;
9042;SDS011;4556;49.150;8.808;2022-07-05T04:48:54;3.67;;;2.20;;
9042;SDS011;4556;49.150;8.808;2022-07-05T04:51:23;3.57;;;2.07;;
9042;SDS011;4556;49.150;8.808;2022-07-05T04:53:50;4.43;;;2.00;;
9042;SDS011;4556;49.150;8.808;2022-07-05T04:56:17;4.47;;;1.90;;
9042;SDS011;4556;49.150;8.808;2022-07-05T04:58:44;5.43;;;2.23;;
9042;SDS011;4556;49.150;8.808;2022-07-05T05:01:11;3.50;;;2.30;;
9042;SDS011;4556;49.150;8.808;2022-07-05T05:03:38;6.03;;;2.00;;
9042;SDS011;4556;49.150;8.808;2022-07-05T05:06:05;2.70;;;2.30;;
9042;SDS011;4556;49.150;8.808;2022-07-05T05:08:34;6.80;;;2.27;;
9042;SDS011;4556;49.150;8.808;2022-07-05T05:11:02;2.30;;;2.10;;
9042;SDS011;4556;49.150;8.808;2022-07-05T05:13:30;4.00;;;2.50;;
9042;SDS011;4556;49.150;8.808;2022-07-05T05:15:57;4.80;;;2.10;;
9042;SDS011;4556;49.150;8.808;2022-07-05T05:18:25;5.17;;;2.10;;
9042;SDS011;4556;49.150;8.808;2022-07-05T05:20:53;3.10;;;1.93;;
9042;SDS011;4556;49.150;8.808;2022-07-05T05:23:21;4.80;;;2.20;;
9042;SDS011;4556;49.150;8.808;2022-07-05T05:25:50;4.23;;;2.10;;
9042;SDS011;4556;49.150;8.808;2022-07-05T05:28:17;3.23;;;1.80;;
9042;SDS011;4556;49.150;8.808;2022-07-05T05:30:45;2.47;;;1.80;;
9042;SDS011;4556;49.150;8.808;2022-07-05T05:33:12;2.73;;;1.90;;
9042;SDS011;4556;49.150;8.808;2022-07-05T05:35:40;3.17;;;1.93;;
9042;SDS011;4556;49.150;8.808;2022-07-05T05:38:07;3.53;;;1.90;;
9042;SDS011;4556;49.150;8.808;2022-07-05T05:40:34;2.50;;;1.97;;
9042;SDS011;4556;49.150;8.808;2022-07-05T05:43:04;5.33;;;1.97;;
9042;SDS011;4556;49.150;8.808;2022-07-05T05:45:31;4.30;;;2.03;;
9042;SDS011;4556;49.150;8.808;2022-07-05T05:47:58;2.53;;;1.73;;
9042;SDS011;4556;49.150;8.808;2022-07-05T05:50:27;2.83;;;2.07;;
9042;SDS011;4556;49.150;8.808;2022-07-05T05:52:55;2.23;;;1.40;;
9042;SDS011;4556;49.150;8.808;2022-07-05T05:55:23;2.83;;;1.60;;
9042;SDS011;4556;49.150;8.808;2022-07-05T05:57:51;3.60;;;1.60;;
9042;SDS011;4556;49.150;8.808;2022-07-05T06:00:21;2.40;;;1.77;;
9042;SDS011;4556;49.150;8.808;2022-07-05T06:02:49;3.13;;;1.40;;
9042;SDS011;4556;49.150;8.808;2022-07-05T06:05:17;2.97;;;1.60;;
9042;SDS011;4556;49.150;8.808;2022-07-05T06:07:51;6.00;;;1.70;;
9042;SDS011;4556;49.150;8.808;2022-07-05T06:10:20;3.33;;;1.87;;
9042;SDS011;4556;49.150;8.808;2022-07-05T06:12:48;4.67;;;1.70;;
9042;SDS011;4556;49.150;8.808;2022-07-05T06:15:16;4.77;;;1.73;;
9042;SDS011;4556;49.150;8.808;2022-07-05T06:17:46;4.17;;;1.47;;
9042;SDS011;4556;49.150;8.808;2022-07-05T06:20:14;2.53;;;1.47;;
9042;SDS011;4556;49.150;8.808;2022-07-05T06:22:42;3.67;;;1.60;;
9042;SDS011;4556;49.150;8.808;2022-07-05T06:25:09;2.03;;;1.50;;
9042;SDS011;4556;49.150;8.808;2022-07-05T06:27:37;2.87;;;1.50;;
9042;SDS011;4556;49.150;8.808;2022-07-05T06:30:06;1.50;;;1.40;;
9042;SDS011;4556;49.150;8.808;2022-07-05T06:32:34;3.03;;;1.53;;
9042;SDS011;4556;49.150;8.808;2022-07-05T06:35:03;3.00;;;1.70;;
9042;SDS011;4556;49.150;8.808;2022-07-05T06:37:41;4.20;;;1.50;;
9042;SDS011;4556;49.150;8.808;2022-07-05T06:40:10;3.53;;;1.10;;
9042;SDS011;4556;49.150;8.808;2022-07-05T06:42:38;3.20;;;1.80;;
9042;SDS011;4556;49.150;8.808;2022-07-05T06:45:06;4.27;;;1.30;;
9042;SDS011;4556;49.150;8.808;2022-07-05T06:47:34;2.07;;;1.20;;
9042;SDS011;4556;49.150;8.808;2022-07-05T06:50:03;2.57;;;1.37;;
9042;SDS011;4556;49.150;8.808;2022-07-05T06:52:32;3.90;;;1.23;;
9042;SDS011;4556;49.150;8.808;2022-07-05T06:54:59;2.57;;;1.40;;
9042;SDS011;4556;49.150;8.808;2022-07-05T06:57:27;1.77;;;1.30;;
9042;SDS011;4556;49.150;8.808;2022-07-05T06:59:54;4.97;;;1.30;;
9042;SDS011;4556;49.150;8.808;2022-07-05T07:02:22;5.40;;;1.37;;
9042;SDS011;4556;49.150;8.808;2022-07-05T07:04:49;4.43;;;1.30;;
9042;SDS011;4556;49.150;8.808;2022-07-05T07:07:17;2.30;;;1.13;;
9042;SDS011;4556;49.150;8.808;2022-07-05T07:10:02;3.57;;;1.10;;
9042;SDS011;4556;49.150;8.808;2022-07-05T07:12:30;1.87;;;1.30;;
9042;SDS011;4556;49.150;8.808;2022-07-05T07:14:57;2.80;;;1.00;;
9042;SDS011;4556;49.150;8.808;2022-07-05T07:17:25;2.40;;;0.90;;
9042;SDS011;4556;49.150;8.808;2022-07-05T07:19:52;2.10;;;1.10;;
9042;SDS011;4556;49.150;8.808;2022-07-05T07:22:21;1.50;;;0.90;;
9042;SDS011;4556;49.150;8.808;2022-07-05T07:24:48;1.87;;;0.90;;
9042;SDS011;4556;49.150;8.808;2022-07-05T07:27:15;1.80;;;1.00;;
9042;SDS011;4556;49.150;8.808;2022-07-05T07:29:42;7.70;;;1.43;;
9042;SDS011;4556;49.150;8.808;2022-07-05T07:32:09;2.03;;;1.03;;
9042;SDS011;4556;49.150;8.808;2022-07-05T07:34:36;5.17;;;1.67;;
9042;SDS011;4556;49.150;8.808;2022-07-05T07:37:05;3.50;;;1.10;;
9042;SDS011;4556;49.150;8.808;2022-07-05T07:39:35;1.50;;;0.90;;
9042;SDS011;4556;49.150;8.808;2022-07-05T07:42:03;1.27;;;0.90;;
9042;SDS011;4556;49.150;8.808;2022-07-05T07:44:30;1.23;;;1.00;;
9042;SDS011;4556;49.150;8.808;2022-07-05T07:46:57;0.80;;;0.70;;
9042;SDS011;4556;49.150;8.808;2022-07-05T07:51:54;1.20;;;0.77;;
9042;SDS011;4556;49.150;8.808;2022-07-05T07:54:22;2.80;;;0.90;;
9042;SDS011;4556;49.150;8.808;2022-07-05T07:56:50;3.03;;;1.10;;
9042;SDS011;4556;49.150;8.808;2022-07-05T07:59:17;1.37;;;0.80;;
9042;SDS011;4556;49.150;8.808;2022-07-05T08:01:45;2.63;;;0.90;;
9042;SDS011;4556;49.150;8.808;2022-07-05T08:04:12;2.37;;;1.00;;
9042;SDS011;4556;49.150;8.808;2022-07-05T08:06:40;1.27;;;0.90;;
9042;SDS011;4556;49.150;8.808;2022-07-05T08:09:08;1.60;;;0.90;;
9042;SDS011;4556;49.150;8.808;2022-07-05T08:11:36;3.33;;;0.80;;
9042;SDS011;4556;49.150;8.808;2022-07-05T08:14:04;1.30;;;1.03;;
9042;SDS011;4556;49.150;8.808;2022-07-05T08:16:31;1.00;;;0.83;;
9042;SDS011;4556;49.150;8.808;2022-07-05T08:18:58;4.23;;;0.80;;
9042;SDS011;4556;49.150;8.808;2022-07-05T08:21:42;3.47;;;1.10;;
9042;SDS011;4556;49.150;8.808;2022-07-05T08:24:10;1.40;;;0.90;;
9042;SDS011;4556;49.150;8.808;2022-07-05T08:26:38;2.10;;;1.00;;
9042;SDS011;4556;49.150;8.808;2022-07-05T08:29:07;3.20;;;0.97;;
9042;SDS011;4556;49.150;8.808;2022-07-05T08:31:37;2.60;;;0.87;;
9042;SDS011;4556;49.150;8.808;2022-07-05T08:34:06;2.23;;;0.97;;
9042;SDS011;4556;49.150;8.808;2022-07-05T08:36:35;1.85;;;0.73;;
9042;SDS011;4556;49.150;8.808;2022-07-05T08:39:06;2.33;;;0.90;;
9042;SDS011;4556;49.150;8.808;2022-07-05T08:41:35;2.08;;;0.88;;
9042;SDS011;4556;49.150;8.808;2022-07-05T08:44:07;2.60;;;0.80;;
9042;SDS011;4556;49.150;8.808;2022-07-05T08:46:37;2.58;;;0.80;;
9042;SDS011;4556;49.150;8.808;2022-07-05T08:49:05;2.53;;;1.00;;
9042;SDS011;4556;49.150;8.808;2022-07-05T08:51:33;2.33;;;0.70;;
9042;SDS011;4556;49.150;8.808;2022-07-05T08:54:03;3.03;;;0.80;;
9042;SDS011;4556;49.150;8.808;2022-07-05T08:56:30;5.63;;;0.93;;
9042;SDS011;4556;49.150;8.808;2022-07-05T08:59:14;4.93;;;1.00;;
9042;SDS011;4556;49.150;8.808;2022-07-05T09:01:41;1.60;;;0.90;;
9042;SDS011;4556;49.150;8.808;2022-07-05T09:04:11;1.53;;;0.80;;
9042;SDS011;4556;49.150;8.808;2022-07-05T09:06:43;2.67;;;0.90;;
9042;SDS011;4556;49.150;8.808;2022-07-05T09:09:13;1.47;;;0.60;;
9042;SDS011;4556;49.150;8.808;2022-07-05T09:11:43;1.67;;;0.70;;
9042;SDS011;4556;49.150;8.808;2022-07-05T09:14:24;2.97;;;0.70;;
9042;SDS011;4556;49.150;8.808;2022-07-05T09:16:53;1.77;;;0.80;;
9042;SDS011;4556;49.150;8.808;2022-07-05T09:19:20;1.47;;;0.80;;
9042;SDS011;4556;49.150;8.808;2022-07-05T09:21:47;2.13;;;0.80;;
9042;SDS011;4556;49.150;8.808;2022-07-05T09:24:26;1.50;;;0.90;;
9042;SDS011;4556;49.150;8.808;2022-07-05T09:26:54;1.60;;;1.10;;
9042;SDS011;4556;49.150;8.808;2022-07-05T09:29:30;1.73;;;0.97;;
9042;SDS011;4556;49.150;8.808;2022-07-05T09:31:57;2.43;;;0.60;;
9042;SDS011;4556;49.150;8.808;2022-07-05T09:34:25;2.83;;;0.80;;
9042;SDS011;4556;49.150;8.808;2022-07-05T09:37:00;4.33;;;0.90;;
9042;SDS011;4556;49.150;8.808;2022-07-05T09:39:35;2.13;;;0.93;;
9042;SDS011;4556;49.150;8.808;2022-07-05T09:42:17;5.27;;;1.00;;
9042;SDS011;4556;49.150;8.808;2022-07-05T09:45:07;2.27;;;0.77;;
9042;SDS011;4556;49.150;8.808;2022-07-05T09:47:49;2.03;;;0.90;;
9042;SDS011;4556;49.150;8.808;2022-07-05T09:53:02;1.30;;;0.40;;
9042;SDS011;4556;49.150;8.808;2022-07-05T09:55:32;2.83;;;0.70;;
9042;SDS011;4556;49.150;8.808;2022-07-05T10:00:54;3.50;;;0.80;;
9042;SDS011;4556;49.150;8.808;2022-07-05T10:03:22;1.23;;;0.80;;
9042;SDS011;4556;49.150;8.808;2022-07-05T10:05:52;3.90;;;0.80;;
9042;SDS011;4556;49.150;8.808;2022-07-05T10:08:40;3.63;;;0.80;;
9042;SDS011;4556;49.150;8.808;2022-07-05T10:11:08;2.60;;;0.80;;
9042;SDS011;4556;49.150;8.808;2022-07-05T10:13:35;3.33;;;1.17;;
9042;SDS011;4556;49.150;8.808;2022-07-05T10:16:06;0.97;;;0.70;;
9042;SDS011;4556;49.150;8.808;2022-07-05T10:18:33;2.70;;;0.93;;
9042;SDS011;4556;49.150;8.808;2022-07-05T10:21:00;1.50;;;0.70;;
9042;SDS011;4556;49.150;8.808;2022-07-05T10:23:30;2.03;;;0.93;;
9042;SDS011;4556;49.150;8.808;2022-07-05T10:25:58;3.43;;;0.90;;
9042;SDS011;4556;49.150;8.808;2022-07-05T10:28:38;3.20;;;0.70;;
9042;SDS011;4556;49.150;8.808;2022-07-05T10:31:07;2.20;;;0.90;;
9042;SDS011;4556;49.150;8.808;2022-07-05T10:33:35;2.20;;;0.70;;
9042;SDS011;4556;49.150;8.808;2022-07-05T10:51:29;1.67;;;0.83;;
9042;SDS011;4556;49.150;8.808;2022-07-05T10:54:07;2.00;;;0.90;;
9042;SDS011;4556;49.150;8.808;2022-07-05T11:02:01;1.43;;;0.70;;
9042;SDS011;4556;49.150;8.808;2022-07-05T11:04:39;1.77;;;0.70;;
9042;SDS011;4556;49.150;8.808;2022-07-05T11:07:07;1.73;;;0.80;;
9042;SDS011;4556;49.150;8.808;2022-07-05T11:09:35;1.33;;;0.70;;
9042;SDS011;4556;49.150;8.808;2022-07-05T11:12:06;1.95;;;0.93;;
9042;SDS011;4556;49.150;8.808;2022-07-05T11:14:36;1.27;;;0.70;;
9042;SDS011;4556;49.150;8.808;2022-07-05T11:17:14;3.63;;;0.90;;
9042;SDS011;4556;49.150;8.808;2022-07-05T11:20:06;1.95;;;0.80;;
9042;SDS011;4556;49.150;8.808;2022-07-05T11:22:38;0.77;;;0.60;;
9042;SDS011;4556;49.150;8.808;2022-07-05T11:25:07;1.05;;;0.60;;
9042;SDS011;4556;49.150;8.808;2022-07-05T11:27:36;2.67;;;0.80;;
9042;SDS011;4556;49.150;8.808;2022-07-05T11:30:25;4.07;;;0.90;;
9042;SDS011;4556;49.150;8.808;2022-07-05T11:32:52;1.33;;;0.73;;
9042;SDS011;4556;49.150;8.808;2022-07-05T11:35:22;1.40;;;0.67;;
9042;SDS011;4556;49.150;8.808;2022-07-05T11:38:02;2.37;;;0.83;;
9042;SDS011;4556;49.150;8.808;2022-07-05T11:40:32;1.60;;;0.77;;
9042;SDS011;4556;49.150;8.808;2022-07-05T11:43:00;3.10;;;0.83;;
9042;SDS011;4556;49.150;8.808;2022-07-05T11:45:28;0.87;;;0.80;;
9042;SDS011;4556;49.150;8.808;2022-07-05T11:47:56;4.60;;;0.70;;
9042;SDS011;4556;49.150;8.808;2022-07-05T11:50:25;1.50;;;0.60;;
9042;SDS011;4556;49.150;8.808;2022-07-05T11:52:54;2.40;;;0.87;;
9042;SDS011;4556;49.150;8.808;2022-07-05T11:55:23;2.33;;;0.73;;
9042;SDS011;4556;49.150;8.808;2022-07-05T11:57:52;1.60;;;0.77;;
9042;SDS011;4556;49.150;8.808;2022-07-05T12:00:26;2.97;;;0.87;;
9042;SDS011;4556;49.150;8.808;2022-07-05T12:02:54;0.90;;;0.60;;
9042;SDS011;4556;49.150;8.808;2022-07-05T12:05:22;5.33;;;0.70;;
9042;SDS011;4556;49.150;8.808;2022-07-05T12:07:50;5.75;;;0.80;;
9042;SDS011;4556;49.150;8.808;2022-07-05T12:10:18;1.47;;;0.70;;
9042;SDS011;4556;49.150;8.808;2022-07-05T12:13:05;3.23;;;0.93;;
9042;SDS011;4556;49.150;8.808;2022-07-05T12:15:32;1.57;;;0.90;;
9042;SDS011;4556;49.150;8.808;2022-07-05T12:18:00;2.33;;;0.83;;
9042;SDS011;4556;49.150;8.808;2022-07-05T12:20:30;1.73;;;0.70;;
9042;SDS011;4556;49.150;8.808;2022-07-05T12:23:00;1.63;;;0.73;;
9042;SDS011;4556;49.150;8.808;2022-07-05T12:25:30;1.77;;;1.20;;
9042;SDS011;4556;49.150;8.808;2022-07-05T12:27:59;2.95;;;1.10;;
9042;SDS011;4556;49.150;8.808;2022-07-05T12:30:31;1.80;;;1.00;;
9042;SDS011;4556;49.150;8.808;2022-07-05T12:32:59;1.57;;;0.80;;
9042;SDS011;4556;49.150;8.808;2022-07-05T12:35:28;1.43;;;0.70;;
9042;SDS011;4556;49.150;8.808;2022-07-05T12:38:00;1.43;;;0.70;;
9042;SDS011;4556;49.150;8.808;2022-07-05T12:40:29;1.47;;;0.80;;
9042;SDS011;4556;49.150;8.808;2022-07-05T12:43:00;4.37;;;0.90;;
9042;SDS011;4556;49.150;8.808;2022-07-05T12:45:30;1.47;;;0.90;;
9042;SDS011;4556;49.150;8.808;2022-07-05T12:47:59;1.73;;;0.87;;
9042;SDS011;4556;49.150;8.808;2022-07-05T12:50:27;3.70;;;0.97;;
9042;SDS011;4556;49.150;8.808;2022-07-05T12:52:57;5.47;;;0.90;;
9042;SDS011;4556;49.150;8.808;2022-07-05T12:55:33;2.90;;;0.93;;
9042;SDS011;4556;49.150;8.808;2022-07-05T12:58:18;3.28;;;0.90;;
9042;SDS011;4556;49.150;8.808;2022-07-05T13:00:47;1.43;;;0.60;;
9042;SDS011;4556;49.150;8.808;2022-07-05T13:03:14;1.37;;;0.70;;
9042;SDS011;4556;49.150;8.808;2022-07-05T13:05:59;1.63;;;0.80;;
9042;SDS011;4556;49.150;8.808;2022-07-05T13:08:34;2.73;;;0.80;;
9042;SDS011;4556;49.150;8.808;2022-07-05T13:11:28;1.80;;;0.80;;
9042;SDS011;4556;49.150;8.808;2022-07-05T13:13:56;1.33;;;0.93;;
9042;SDS011;4556;49.150;8.808;2022-07-05T13:16:29;1.92;;;0.77;;
9042;SDS011;4556;49.150;8.808;2022-07-05T13:19:05;1.70;;;0.88;;
9042;SDS011;4556;49.150;8.808;2022-07-05T13:21:33;1.03;;;0.70;;
9042;SDS011;4556;49.150;8.808;2022-07-05T13:24:04;2.10;;;0.60;;
9042;SDS011;4556;49.150;8.808;2022-07-05T13:26:31;1.53;;;0.83;;
9042;SDS011;4556;49.150;8.808;2022-07-05T13:28:59;1.30;;;0.83;;
9042;SDS011;4556;49.150;8.808;2022-07-05T13:33:59;1.73;;;0.90;;
9042;SDS011;4556;49.150;8.808;2022-07-05T13:36:27;1.47;;;0.80;;
9042;SDS011;4556;49.150;8.808;2022-07-05T13:39:05;1.70;;;0.77;;
9042;SDS011;4556;49.150;8.808;2022-07-05T13:46:45;1.60;;;0.73;;
9042;SDS011;4556;49.150;8.808;2022-07-05T13:49:13;1.85;;;0.70;;
9042;SDS011;4556;49.150;8.808;2022-07-05T13:51:41;1.23;;;0.60;;
9042;SDS011;4556;49.150;8.808;2022-07-05T13:54:12;5.45;;;0.93;;
9042;SDS011;4556;49.150;8.808;2022-07-05T14:14:28;2.30;;;0.90;;
9042;SDS011;4556;49.150;8.808;2022-07-05T14:16:55;1.60;;;0.63;;
9042;SDS011;4556;49.150;8.808;2022-07-05T14:19:22;2.43;;;0.80;;
9042;SDS011;4556;49.150;8.808;2022-07-05T14:21:53;1.00;;;0.80;;
9042;SDS011;4556;49.150;8.808;2022-07-05T14:24:32;1.47;;;0.67;;
9042;SDS011;4556;49.150;8.808;2022-07-05T14:48:31;1.53;;;0.80;;
9042;SDS011;4556;49.150;8.808;2022-07-05T14:51:01;0.87;;;0.60;;
9042;SDS011;4556;49.150;8.808;2022-07-05T14:53:29;1.50;;;0.70;;
9042;SDS011;4556;49.150;8.808;2022-07-05T14:55:56;1.10;;;0.50;;
9042;SDS011;4556;49.150;8.808;2022-07-05T14:58:23;1.47;;;0.80;;
9042;SDS011;4556;49.150;8.808;2022-07-05T15:00:55;2.10;;;0.70;;
9042;SDS011;4556;49.150;8.808;2022-07-05T15:03:22;3.73;;;0.70;;
9042;SDS011;4556;49.150;8.808;2022-07-05T15:05:52;0.70;;;0.70;;
9042;SDS011;4556;49.150;8.808;2022-07-05T15:08:20;1.77;;;0.70;;
9042;SDS011;4556;49.150;8.808;2022-07-05T15:10:47;1.60;;;0.60;;
9042;SDS011;4556;49.150;8.808;2022-07-05T15:13:16;1.47;;;0.90;;
9042;SDS011;4556;49.150;8.808;2022-07-05T15:15:43;3.13;;;0.97;;
9042;SDS011;4556;49.150;8.808;2022-07-05T15:18:12;1.50;;;0.80;;
9042;SDS011;4556;49.150;8.808;2022-07-05T15:20:39;0.83;;;0.63;;
9042;SDS011;4556;49.150;8.808;2022-07-05T15:23:08;0.73;;;0.50;;
9042;SDS011;4556;49.150;8.808;2022-07-05T15:25:35;1.50;;;0.70;;
9042;SDS011;4556;49.150;8.808;2022-07-05T15:28:02;1.07;;;0.70;;
9042;SDS011;4556;49.150;8.808;2022-07-05T15:30:35;1.33;;;0.80;;
9042;SDS011;4556;49.150;8.808;2022-07-05T15:33:02;2.63;;;0.73;;
9042;SDS011;4556;49.150;8.808;2022-07-05T15:35:30;0.93;;;0.60;;
9042;SDS011;4556;49.150;8.808;2022-07-05T15:37:57;2.77;;;0.57;;
9042;SDS011;4556;49.150;8.808;2022-07-05T15:40:37;2.17;;;0.70;;
9042;SDS011;4556;49.150;8.808;2022-07-05T15:45:59;1.33;;;0.80;;
9042;SDS011;4556;49.150;8.808;2022-07-05T15:57:26;2.78;;;0.80;;
9042;SDS011;4556;49.150;8.808;2022-07-05T15:59:56;1.40;;;0.80;;
9042;SDS011;4556;49.150;8.808;2022-07-05T16:14:29;1.13;;;0.80;;
9042;SDS011;4556;49.150;8.808;2022-07-05T16:16:56;1.85;;;0.80;;
9042;SDS011;4556;49.150;8.808;2022-07-05T16:19:23;0.85;;;0.60;;
9042;SDS011;4556;49.150;8.808;2022-07-05T16:21:50;1.55;;;0.80;;
9042;SDS011;4556;49.150;8.808;2022-07-05T16:24:18;2.00;;;0.70;;
9042;SDS011;4556;49.150;8.808;2022-07-05T16:26:47;2.85;;;0.90;;
9042;SDS011;4556;49.150;8.808;2022-07-05T16:29:16;1.37;;;0.60;;
9042;SDS011;4556;49.150;8.808;2022-07-05T16:31:44;2.70;;;0.87;;
9042;SDS011;4556;49.150;8.808;2022-07-05T16:34:14;1.83;;;0.80;;
9042;SDS011;4556;49.150;8.808;2022-07-05T16:36:41;0.47;;;0.43;;
9042;SDS011;4556;49.150;8.808;2022-07-05T16:39:21;0.80;;;0.60;;
9042;SDS011;4556;49.150;8.808;2022-07-05T16:41:52;1.03;;;0.50;;
9042;SDS011;4556;49.150;8.808;2022-07-05T16:47:08;1.40;;;0.70;;
9042;SDS011;4556;49.150;8.808;2022-07-05T16:49:36;4.97;;;0.93;;
9042;SDS011;4556;49.150;8.808;2022-07-05T16:57:52;0.70;;;0.70;;
9042;SDS011;4556;49.150;8.808;2022-07-05T17:00:19;1.83;;;0.80;;
9042;SDS011;4556;49.150;8.808;2022-07-05T17:02:48;2.33;;;0.70;;
9042;SDS011;4556;49.150;8.808;2022-07-05T17:05:16;1.90;;;0.80;;
9042;SDS011;4556;49.150;8.808;2022-07-05T17:07:46;1.60;;;0.70;;
9042;SDS011;4556;49.150;8.808;2022-07-05T17:10:14;1.33;;;0.90;;
9042;SDS011;4556;49.150;8.808;2022-07-05T17:12:41;1.43;;;0.63;;
9042;SDS011;4556;49.150;8.808;2022-07-05T17:15:09;2.37;;;1.07;;
9042;SDS011;4556;49.150;8.808;2022-07-05T17:17:36;2.27;;;0.77;;